createdAt,value
2024-02-05T00:02:13.845Z,98240.09
2024-02-05T00:04:40.274Z,98231.78
2024-02-05T00:07:07.012Z,98219.19
2024-02-05T00:09:33.542Z,98224.03
2024-02-05T00:12:00.528Z,98233.97
2024-02-05T00:14:26.888Z,98224.84
2024-02-05T00:16:53.251Z,98220.25
2024-02-05T00:19:19.745Z,98222.56
2024-02-05T00:21:46.244Z,98222.22
2024-02-05T00:24:12.611Z,98226.00
2024-02-05T00:26:38.976Z,98217.69
2024-02-05T00:29:08.719Z,98218.72
2024-02-05T00:31:35.155Z,98195.41
2024-02-05T00:34:01.667Z,98195.34
2024-02-05T00:36:28.664Z,98205.81
2024-02-05T00:38:55.063Z,98202.38
2024-02-05T00:41:21.442Z,98220.03
2024-02-05T00:43:47.817Z,98218.88
2024-02-05T00:46:24.014Z,98231.34
2024-02-05T00:48:50.867Z,98225.81
2024-02-05T00:51:17.332Z,98228.09
2024-02-05T00:53:43.713Z,98222.56
2024-02-05T00:56:10.094Z,98219.09
2024-02-05T00:58:36.469Z,98211.16
2024-02-05T01:01:03.157Z,98215.53
2024-02-05T01:03:29.572Z,98210.34
2024-02-05T01:05:59.168Z,98221.75
2024-02-05T01:08:26.007Z,98231.22
2024-02-05T01:10:54.097Z,98216.44
2024-02-05T01:13:20.729Z,98226.94
2024-02-05T01:15:47.170Z,98222.66
2024-02-05T01:18:13.640Z,98226.16
2024-02-05T01:20:40.458Z,98228.31
2024-02-05T01:23:06.832Z,98235.47
2024-02-05T01:25:33.193Z,98223.59
2024-02-05T01:27:59.627Z,98220.38
2024-02-05T01:30:26.028Z,98225.56
2024-02-05T01:32:52.505Z,98217.94
2024-02-05T01:35:18.923Z,98226.72
2024-02-05T01:37:45.296Z,98236.84
2024-02-05T01:40:12.045Z,98251.41
2024-02-05T01:42:39.108Z,98242.19
2024-02-05T01:45:08.501Z,98238.13
2024-02-05T01:47:38.539Z,98246.56
2024-02-05T01:50:06.568Z,98233.41
2024-02-05T01:52:33.836Z,98235.94
2024-02-05T01:55:00.289Z,98231.66
2024-02-05T01:57:26.905Z,98234.56
2024-02-05T01:59:53.302Z,98231.31
2024-02-05T02:02:19.677Z,98229.47
2024-02-05T02:04:46.182Z,98232.94
2024-02-05T02:07:13.133Z,98227.41
2024-02-05T02:09:39.694Z,98221.06
2024-02-05T02:12:06.341Z,98221.28
2024-02-05T02:14:32.737Z,98215.41
2024-02-05T02:16:59.179Z,98211.47
2024-02-05T02:19:34.022Z,98206.75
2024-02-05T02:22:20.410Z,98213.22
2024-02-05T02:24:46.859Z,98205.94
2024-02-05T02:27:13.250Z,98203.41
2024-02-05T02:29:39.621Z,98212.63
2024-02-05T02:32:19.055Z,98220.50
2024-02-05T02:34:45.871Z,98198.91
2024-02-05T02:37:14.307Z,98209.31
2024-02-05T02:39:43.430Z,98202.28
2024-02-05T02:42:09.845Z,98205.13
2024-02-05T02:44:36.223Z,98194.31
2024-02-05T02:47:02.742Z,98203.75
2024-02-05T02:49:29.325Z,98210.44
2024-02-05T02:51:55.875Z,98200.53
2024-02-05T02:54:22.709Z,98210.44
2024-02-05T02:56:49.088Z,98204.00
2024-02-05T02:59:15.455Z,98198.44
2024-02-05T03:01:41.979Z,98200.06
2024-02-05T03:04:08.579Z,98195.81
2024-02-05T03:06:35.247Z,98201.69
2024-02-05T03:09:01.637Z,98208.38
2024-02-05T03:11:28.523Z,98213.09
2024-02-05T03:13:54.961Z,98207.09
2024-02-05T03:16:21.543Z,98222.56
2024-02-05T03:18:48.060Z,98217.94
2024-02-05T03:21:14.441Z,98224.41
2024-02-05T03:23:40.990Z,98214.25
2024-02-05T03:26:07.495Z,98212.50
2024-02-05T03:28:33.865Z,98214.25
2024-02-05T03:31:00.324Z,98207.78
2024-02-05T03:33:27.208Z,98208.13
2024-02-05T03:35:53.574Z,98209.41
2024-02-05T03:38:19.930Z,98211.03
2024-02-05T03:40:46.325Z,98194.16
2024-02-05T03:43:12.766Z,98204.22
2024-02-05T03:45:39.209Z,98197.75
2024-02-05T03:48:05.946Z,98200.16
2024-02-05T03:50:32.964Z,98194.75
2024-02-05T03:52:59.363Z,98201.22
2024-02-05T03:55:25.941Z,98203.75
2024-02-05T03:57:58.842Z,98211.50
2024-02-05T04:00:25.238Z,98204.34
2024-02-05T04:02:51.620Z,98210.69
2024-02-05T04:05:19.158Z,98195.22
2024-02-05T04:07:45.534Z,98201.22
2024-02-05T04:10:11.943Z,98189.34
2024-02-05T04:12:38.375Z,98203.06
2024-02-05T04:15:04.946Z,98211.59
2024-02-05T04:17:31.335Z,98196.72
2024-02-05T04:19:57.769Z,98209.28
2024-02-05T04:22:24.229Z,98204.22
2024-02-05T04:24:50.680Z,98205.50
2024-02-05T04:27:17.098Z,98194.75
2024-02-05T04:29:43.544Z,98201.09
2024-02-05T04:32:10.352Z,98209.41
2024-02-05T04:34:37.060Z,98205.03
2024-02-05T04:37:03.567Z,98190.84
2024-02-05T04:39:29.981Z,98194.06
2024-02-05T04:41:56.414Z,98186.44
2024-02-05T04:44:22.818Z,98208.25
2024-02-05T04:46:49.194Z,98195.69
2024-02-05T04:49:15.693Z,98181.72
2024-02-05T04:51:42.164Z,98191.06
2024-02-05T04:54:08.963Z,98173.41
2024-02-05T04:56:35.670Z,98189.22
2024-02-05T04:59:02.111Z,98186.09
2024-02-05T05:01:28.581Z,98189.31
2024-02-05T05:03:55.027Z,98181.25
2024-02-05T05:06:21.429Z,98192.56
2024-02-05T05:08:47.824Z,98181.13
2024-02-05T05:11:23.649Z,98168.56
2024-02-05T05:13:50.502Z,98186.66
2024-02-05T05:16:18.065Z,98194.63
2024-02-05T05:18:44.793Z,98187.81
2024-02-05T05:21:11.251Z,98191.88
2024-02-05T05:23:37.650Z,98178.72
2024-02-05T05:26:04.143Z,98181.94
2024-02-05T05:28:32.037Z,98179.97
2024-02-05T05:30:58.435Z,98169.47
2024-02-05T05:33:25.043Z,98173.50
2024-02-05T05:35:51.432Z,98166.28
2024-02-05T05:38:18.031Z,98165.91
2024-02-05T05:40:44.707Z,98151.38
2024-02-05T05:43:11.230Z,98170.19
2024-02-05T05:45:37.706Z,98165.09
2024-02-05T05:48:07.138Z,98160.75
2024-02-05T05:50:33.873Z,98151.50
2024-02-05T05:53:00.243Z,98174.31
2024-02-05T05:55:26.697Z,98149.63
2024-02-05T05:57:53.776Z,98149.19
2024-02-05T06:00:22.443Z,98164.75
2024-02-05T06:02:49.678Z,98149.50
2024-02-05T06:05:16.203Z,98151.47
2024-02-05T06:07:42.868Z,98157.34
2024-02-05T06:10:10.143Z,98166.84
2024-02-05T06:12:36.639Z,98150.56
2024-02-05T06:15:04.058Z,98153.09
2024-02-05T06:17:30.498Z,98144.22
2024-02-05T06:19:56.978Z,98148.16
2024-02-05T06:22:23.842Z,98162.09
2024-02-05T06:24:50.491Z,98155.63
2024-02-05T06:27:17.111Z,98161.84
2024-02-05T06:29:43.527Z,98167.94
2024-02-05T06:32:09.958Z,98173.13
2024-02-05T06:34:36.382Z,98159.16
2024-02-05T06:37:02.912Z,98167.47
2024-02-05T06:39:29.547Z,98161.03
2024-02-05T06:41:55.969Z,98177.69
2024-02-05T06:44:22.368Z,98175.84
2024-02-05T06:46:48.740Z,98172.63
2024-02-05T06:49:16.627Z,98189.06
2024-02-05T06:51:43.178Z,98190.09
2024-02-05T06:54:09.892Z,98193.19
2024-02-05T06:56:36.309Z,98191.25
2024-02-05T06:59:02.691Z,98192.66
2024-02-05T07:01:29.455Z,98195.63
2024-02-05T07:03:56.067Z,98191.25
2024-02-05T07:06:22.668Z,98200.47
2024-02-05T07:08:49.084Z,98190.00
2024-02-05T07:11:15.558Z,98195.16
2024-02-05T07:13:41.938Z,98187.78
2024-02-05T07:16:12.128Z,98179.03
2024-02-05T07:18:38.620Z,98190.56
2024-02-05T07:21:06.172Z,98186.84
2024-02-05T07:23:32.931Z,98186.44
2024-02-05T07:25:59.311Z,98184.31
2024-02-05T07:28:25.836Z,98195.22
2024-02-05T07:30:52.324Z,98196.22
2024-02-05T07:33:18.772Z,98184.00
2024-02-05T07:35:45.144Z,98212.81
2024-02-05T07:38:11.556Z,98200.59
2024-02-05T07:40:38.076Z,98206.94
2024-02-05T07:43:04.546Z,98199.47
2024-02-05T07:45:33.078Z,98196.56
2024-02-05T07:47:59.894Z,98206.94
2024-02-05T07:50:26.425Z,98191.78
2024-02-05T07:52:52.850Z,98208.50
2024-02-05T07:55:19.251Z,98197.00
2024-02-05T07:57:45.709Z,98181.03
2024-02-05T08:00:12.412Z,98211.63
2024-02-05T08:02:38.917Z,98194.88
2024-02-05T08:05:05.410Z,98212.88
2024-02-05T08:07:32.439Z,98202.53
2024-02-05T08:09:59.213Z,98193.25
2024-02-05T08:12:25.766Z,98211.25
2024-02-05T08:14:52.149Z,98215.19
2024-02-05T08:17:18.629Z,98221.88
2024-02-05T08:19:45.159Z,98223.50
2024-02-05T08:22:11.683Z,98220.03
2024-02-05T08:24:38.237Z,98208.84
2024-02-05T08:27:04.672Z,98221.16
2024-02-05T08:29:31.226Z,98226.25
2024-02-05T08:31:59.303Z,98226.59
2024-02-05T08:34:25.880Z,98228.88
2024-02-05T08:36:52.436Z,98220.78
2024-02-05T08:39:18.901Z,98226.97
2024-02-05T08:41:45.297Z,98235.88
2024-02-05T08:44:12.189Z,98229.88
2024-02-05T08:46:38.912Z,98222.41
2024-02-05T08:49:05.942Z,98230.34
2024-02-05T08:51:32.418Z,98222.06
2024-02-05T08:53:59.008Z,98215.72
2024-02-05T08:56:25.454Z,98213.28
2024-02-05T08:58:51.836Z,98215.25
2024-02-05T09:01:18.384Z,98227.25
2024-02-05T09:03:44.901Z,98223.84
2024-02-05T09:06:11.408Z,98217.50
2024-02-05T09:08:37.828Z,98231.63
2024-02-05T09:11:07.290Z,98217.25
2024-02-05T09:13:33.703Z,98225.09
2024-02-05T09:16:00.180Z,98229.03
2024-02-05T09:18:27.595Z,98224.97
2024-02-05T09:20:54.058Z,98234.31
2024-02-05T09:23:20.464Z,98230.88
2024-02-05T09:25:47.565Z,98240.19
2024-02-05T09:28:14.004Z,98252.66
2024-02-05T09:30:40.828Z,98248.22
2024-02-05T09:33:07.577Z,98243.63
2024-02-05T09:35:34.086Z,98242.69
2024-02-05T09:38:00.603Z,98241.69
2024-02-05T09:40:27.039Z,98249.16
2024-02-05T09:42:53.674Z,98247.59
2024-02-05T09:45:20.060Z,98234.72
2024-02-05T09:47:46.512Z,98247.75
2024-02-05T09:50:13.626Z,98245.47
2024-02-05T09:52:43.886Z,98247.59
2024-02-05T09:55:11.277Z,98257.84
2024-02-05T09:57:37.720Z,98248.38
2024-02-05T10:00:04.326Z,98243.44
2024-02-05T10:02:30.881Z,98245.25
2024-02-05T10:04:57.658Z,98251.25
2024-02-05T10:07:25.222Z,98241.59
2024-02-05T10:09:51.794Z,98242.28
2024-02-05T10:12:18.183Z,98236.84
2024-02-05T10:14:44.571Z,98225.63
2024-02-05T10:17:11.019Z,98247.28
2024-02-05T10:19:37.544Z,98241.25
2024-02-05T10:22:05.904Z,98229.25
2024-02-05T10:24:32.720Z,98248.84
2024-02-05T10:26:59.345Z,98235.72
2024-02-05T10:29:26.068Z,98226.69
2024-02-05T10:31:54.813Z,98238.31
2024-02-05T10:34:24.992Z,98226.69
2024-02-05T10:36:51.761Z,98224.88
2024-02-05T10:39:25.329Z,98227.66
2024-02-05T10:41:52.685Z,98229.41
2024-02-05T10:44:25.333Z,98227.91
2024-02-05T10:47:01.101Z,98231.59
2024-02-05T10:49:27.542Z,98242.09
2024-02-05T10:51:54.059Z,98231.72
2024-02-05T10:54:20.595Z,98232.19
2024-02-05T10:56:46.986Z,98222.59
2024-02-05T10:59:13.366Z,98228.72
2024-02-05T11:01:42.870Z,98221.59
2024-02-05T11:04:10.739Z,98211.31
2024-02-05T11:06:37.647Z,98234.03
2024-02-05T11:09:05.932Z,98218.13
2024-02-05T11:11:33.053Z,98201.88
2024-02-05T11:14:00.962Z,98213.53
2024-02-05T11:16:27.357Z,98211.91
2024-02-05T11:18:55.276Z,98205.31
2024-02-05T11:21:23.773Z,98207.88
2024-02-05T11:23:50.277Z,98206.84
2024-02-05T11:26:17.509Z,98217.25
2024-02-05T11:28:43.983Z,98205.34
2024-02-05T11:31:12.549Z,98207.53
2024-02-05T11:33:39.117Z,98206.03
2024-02-05T11:36:08.869Z,98197.88
2024-02-05T11:38:35.333Z,98188.97
2024-02-05T11:41:01.945Z,98187.00
2024-02-05T11:43:30.088Z,98183.91
2024-02-05T11:45:56.531Z,98196.72
2024-02-05T11:48:23.118Z,98193.59
2024-02-05T11:50:50.139Z,98183.22
2024-02-05T11:53:16.896Z,98176.78
2024-02-05T11:55:43.383Z,98164.53
2024-02-05T11:58:09.924Z,98166.97
2024-02-05T12:00:36.478Z,98166.94
2024-02-05T12:03:02.931Z,98159.31
2024-02-05T12:05:30.753Z,98173.31
2024-02-05T12:07:57.301Z,98167.31
2024-02-05T12:10:24.080Z,98174.13
2024-02-05T12:12:51.917Z,98159.91
2024-02-05T12:15:19.532Z,98157.59
2024-02-05T12:17:47.046Z,98156.81
2024-02-05T12:20:20.106Z,98148.13
2024-02-05T12:22:49.587Z,98148.13
2024-02-05T12:25:28.068Z,98144.00
2024-02-05T12:28:02.114Z,98136.50
2024-02-05T12:30:28.593Z,98141.91
2024-02-05T12:32:55.369Z,98152.53
2024-02-05T12:35:22.354Z,98124.72
2024-02-05T12:37:49.184Z,98133.72
2024-02-05T12:40:15.823Z,98132.00
2024-02-05T12:42:42.253Z,98131.31
2024-02-05T12:45:12.561Z,98126.78
2024-02-05T12:47:42.411Z,98128.41
2024-02-05T12:50:09.061Z,98101.44
2024-02-05T12:52:35.606Z,98121.59
2024-02-05T12:55:02.234Z,98105.34
2024-02-05T12:57:29.459Z,98107.19
2024-02-05T12:59:55.949Z,98119.78
2024-02-05T13:02:22.746Z,98115.63
2024-02-05T13:04:49.847Z,98118.63
2024-02-05T13:07:19.756Z,98115.28
2024-02-05T13:09:47.992Z,98113.19
2024-02-05T13:12:14.400Z,98117.81
2024-02-05T13:14:40.781Z,98111.94
2024-02-05T13:17:07.608Z,98104.19
2024-02-05T13:19:34.326Z,98102.94
2024-02-05T13:22:01.365Z,98102.81
2024-02-05T13:24:27.821Z,98106.16
2024-02-05T13:26:55.369Z,98089.78
2024-02-05T13:29:23.435Z,98101.78
2024-02-05T13:31:49.808Z,98093.47
2024-02-05T13:34:17.924Z,98075.59
2024-02-05T13:36:44.566Z,98090.69
2024-02-05T13:39:11.051Z,98072.59
2024-02-05T13:41:40.241Z,98084.84
2024-02-05T13:44:06.686Z,98090.16
2024-02-05T13:46:33.169Z,98077.91
2024-02-05T13:48:59.810Z,98081.72
2024-02-05T13:51:26.810Z,98078.97
2024-02-05T13:53:53.220Z,98088.75
2024-02-05T13:56:19.587Z,98087.03
2024-02-05T13:58:45.948Z,98098.91
2024-02-05T14:01:12.554Z,98075.72
2024-02-05T14:03:39.417Z,98094.31
2024-02-05T14:06:05.819Z,98086.47
2024-02-05T14:08:33.341Z,98076.78
2024-02-05T14:11:02.523Z,98076.53
2024-02-05T14:13:29.033Z,98086.69
2024-02-05T14:15:55.475Z,98097.75
2024-02-05T14:18:22.170Z,98086.66
2024-02-05T14:20:48.705Z,98078.16
2024-02-05T14:23:15.082Z,98088.41
2024-02-05T14:25:41.709Z,98079.88
2024-02-05T14:28:08.595Z,98081.16
2024-02-05T14:30:35.128Z,98080.81
2024-02-05T14:33:01.565Z,98070.66
2024-02-05T14:35:28.071Z,98068.59
2024-02-05T14:37:54.498Z,98070.50
2024-02-05T14:40:20.922Z,98081.25
2024-02-05T14:42:47.362Z,98061.28
2024-02-05T14:45:16.449Z,98083.44
2024-02-05T14:47:44.009Z,98070.78
2024-02-05T14:50:10.808Z,98089.66
2024-02-05T14:52:37.529Z,98076.97
2024-02-05T14:55:04.764Z,98081.47
2024-02-05T14:57:31.251Z,98079.63
2024-02-05T14:59:57.665Z,98082.66
2024-02-05T15:02:24.153Z,98084.47
2024-02-05T15:04:50.752Z,98072.34
2024-02-05T15:07:17.486Z,98072.28
2024-02-05T15:09:45.900Z,98078.63
2024-02-05T15:12:13.722Z,98071.00
2024-02-05T15:14:40.869Z,98075.38
2024-02-05T15:17:07.772Z,98077.56
2024-02-05T15:19:34.442Z,98078.38
2024-02-05T15:22:01.138Z,98068.47
2024-02-05T15:24:27.658Z,98069.50
2024-02-05T15:26:54.047Z,98069.16
2024-02-05T15:29:20.437Z,98058.09
2024-02-05T15:31:47.158Z,98055.31
2024-02-05T15:34:13.887Z,98062.59
2024-02-05T15:36:40.694Z,98056.81
2024-02-05T15:39:11.561Z,98049.66
2024-02-05T15:41:38.561Z,98069.75
2024-02-05T15:44:05.289Z,98054.66
2024-02-05T15:46:31.782Z,98051.63
2024-02-05T15:48:58.397Z,98057.75
2024-02-05T15:51:24.805Z,98053.16
2024-02-05T15:53:51.210Z,98062.59
2024-02-05T15:56:20.174Z,98053.84
2024-02-05T15:58:48.896Z,98056.50
2024-02-05T16:01:15.679Z,98053.94
2024-02-05T16:03:44.985Z,98059.25
2024-02-05T16:06:11.550Z,98061.53
2024-02-05T16:08:40.451Z,98048.66
2024-02-05T16:11:06.989Z,98054.06
2024-02-05T16:13:34.329Z,98046.13
2024-02-05T16:16:00.910Z,98049.69
2024-02-05T16:18:28.888Z,98048.75
2024-02-05T16:20:55.368Z,98058.69
2024-02-05T16:23:21.874Z,98059.94
2024-02-05T16:25:48.323Z,98059.50
2024-02-05T16:28:15.239Z,98050.16
2024-02-05T16:30:41.657Z,98066.75
2024-02-05T16:33:08.081Z,98055.34
2024-02-05T16:35:34.542Z,98052.81
2024-02-05T16:38:00.912Z,98056.97
2024-02-05T16:40:27.712Z,98059.25
2024-02-05T16:42:54.164Z,98055.59
2024-02-05T16:45:20.580Z,98053.59
2024-02-05T16:47:47.106Z,98058.78
2024-02-05T16:50:13.947Z,98046.25
2024-02-05T16:52:40.482Z,98053.97
2024-02-05T16:55:07.774Z,98054.97
2024-02-05T16:57:34.224Z,98067.53
2024-02-05T17:00:00.613Z,98054.63
2024-02-05T17:02:27.001Z,98051.56
2024-02-05T17:04:54.029Z,98064.88
2024-02-05T17:07:20.892Z,98058.63
2024-02-05T17:09:47.450Z,98046.22
2024-02-05T17:12:14.498Z,98044.00
2024-02-05T17:14:41.202Z,98039.88
2024-02-05T17:17:08.255Z,98055.75
2024-02-05T17:19:34.952Z,98048.16
2024-02-05T17:22:05.536Z,98037.69
2024-02-05T17:24:35.875Z,98041.25
2024-02-05T17:27:02.653Z,98018.44
2024-02-05T17:29:29.038Z,98036.88
2024-02-05T17:31:57.798Z,98026.94
2024-02-05T17:34:24.464Z,98047.91
2024-02-05T17:36:51.151Z,98043.41
2024-02-05T17:39:17.543Z,98023.38
2024-02-05T17:41:43.930Z,98026.69
2024-02-05T17:44:10.337Z,98042.94
2024-02-05T17:46:36.900Z,98046.31
2024-02-05T17:49:03.521Z,98045.63
2024-02-05T17:51:30.924Z,98039.63
2024-02-05T17:53:59.727Z,98046.75
2024-02-05T17:56:26.216Z,98039.72
2024-02-05T17:58:52.676Z,98057.56
2024-02-05T18:01:19.180Z,98041.69
2024-02-05T18:03:45.726Z,98055.88
2024-02-05T18:06:19.415Z,98039.38
2024-02-05T18:08:46.391Z,98054.69
2024-02-05T18:11:12.903Z,98050.41
2024-02-05T18:13:39.306Z,98073.56
2024-02-05T18:16:06.148Z,98049.34
2024-02-05T18:18:34.110Z,98051.31
2024-02-05T18:21:00.800Z,98049.34
2024-02-05T18:23:28.298Z,98046.16
2024-02-05T18:25:55.040Z,98050.16
2024-02-05T18:28:24.037Z,98066.75
2024-02-05T18:30:51.016Z,98065.59
2024-02-05T18:33:17.540Z,98054.69
2024-02-05T18:35:45.941Z,98063.19
2024-02-05T18:38:12.538Z,98061.56
2024-02-05T18:40:38.907Z,98057.06
2024-02-05T18:43:05.341Z,98056.41
2024-02-05T18:45:32.047Z,98043.94
2024-02-05T18:47:58.526Z,98047.16
2024-02-05T18:50:25.002Z,98054.19
2024-02-05T18:52:51.568Z,98040.84
2024-02-05T18:55:17.963Z,98056.75
2024-02-05T18:57:44.363Z,98048.31
2024-02-05T19:00:11.267Z,98046.91
2024-02-05T19:02:37.781Z,98042.19
2024-02-05T19:05:04.518Z,98037.22
2024-02-05T19:07:31.118Z,98032.63
2024-02-05T19:09:57.680Z,98041.72
2024-02-05T19:12:24.078Z,98052.91
2024-02-05T19:14:50.569Z,98055.88
2024-02-05T19:17:17.014Z,98031.69
2024-02-05T19:19:43.499Z,98058.41
2024-02-05T19:22:10.625Z,98046.88
2024-02-05T19:24:38.374Z,98030.91
2024-02-05T19:27:04.930Z,98043.31
2024-02-05T19:29:31.432Z,98032.94
2024-02-05T19:31:57.937Z,98029.25
2024-02-05T19:34:24.652Z,98030.38
2024-02-05T19:36:51.210Z,98026.34
2024-02-05T19:39:17.720Z,98015.56
2024-02-05T19:41:44.494Z,98022.03
2024-02-05T19:44:10.993Z,98021.28
2024-02-05T19:46:37.579Z,98021.63
2024-02-05T19:49:04.364Z,98019.91
2024-02-05T19:51:30.842Z,98016.56
2024-02-05T19:53:58.943Z,98021.41
2024-02-05T19:56:25.336Z,98017.63
2024-02-05T19:58:51.721Z,98024.63
2024-02-05T20:01:18.209Z,98011.28
2024-02-05T20:03:46.681Z,98003.69
2024-02-05T20:06:13.316Z,98007.13
2024-02-05T20:08:43.341Z,97996.69
2024-02-05T20:11:09.748Z,98012.31
2024-02-05T20:13:36.229Z,98009.75
2024-02-05T20:16:02.727Z,98011.69
2024-02-05T20:18:29.265Z,97997.75
2024-02-05T20:20:55.703Z,98000.84
2024-02-05T20:23:22.079Z,98004.56
2024-02-05T20:25:48.904Z,98007.66
2024-02-05T20:28:15.346Z,98005.22
2024-02-05T20:30:41.755Z,97993.84
2024-02-05T20:33:08.629Z,98010.66
2024-02-05T20:35:35.840Z,98000.38
2024-02-05T20:38:02.563Z,98009.84
2024-02-05T20:40:32.444Z,98007.88
2024-02-05T20:42:59.771Z,98008.75
2024-02-05T20:45:27.179Z,97997.72
2024-02-05T20:47:56.742Z,97996.44
2024-02-05T20:50:25.101Z,98001.75
2024-02-05T20:52:55.185Z,97995.63
2024-02-05T20:55:22.434Z,97988.50
2024-02-05T20:57:49.499Z,97983.13
2024-02-05T21:00:19.837Z,97974.50
2024-02-05T21:02:46.965Z,97985.06
2024-02-05T21:05:14.151Z,97993.00
2024-02-05T21:07:41.216Z,97980.09
2024-02-05T21:10:10.223Z,97978.56
2024-02-05T21:12:38.717Z,97980.84
2024-02-05T21:15:07.287Z,97983.59
2024-02-05T21:17:36.135Z,97984.06
2024-02-05T21:20:04.818Z,97991.06
2024-02-05T21:22:34.128Z,97985.28
2024-02-05T21:25:01.059Z,97976.66
2024-02-05T21:27:27.800Z,97977.28
2024-02-05T21:29:54.202Z,97970.81
2024-02-05T21:32:20.617Z,97965.16
2024-02-05T21:34:48.055Z,97946.22
2024-02-05T21:37:16.208Z,97961.00
2024-02-05T21:39:43.298Z,97954.25
2024-02-05T21:42:09.927Z,97941.84
2024-02-05T21:44:36.456Z,97930.91
2024-02-05T21:47:02.875Z,97945.41
2024-02-05T21:49:29.310Z,97951.13
2024-02-05T21:51:55.839Z,97935.50
2024-02-05T21:54:23.484Z,97931.00
2024-02-05T21:56:50.729Z,97926.28
2024-02-05T21:59:17.173Z,97931.34
2024-02-05T22:01:43.747Z,97909.75
2024-02-05T22:04:10.319Z,97917.53
2024-02-05T22:06:36.778Z,97902.34
2024-02-05T22:09:03.155Z,97907.38
2024-02-05T22:11:29.643Z,97920.50
2024-02-05T22:13:56.034Z,97904.50
2024-02-05T22:16:22.471Z,97898.38
2024-02-05T22:18:48.997Z,97899.41
2024-02-05T22:21:15.488Z,97880.75
2024-02-05T22:23:42.051Z,97892.13
2024-02-05T22:26:08.455Z,97890.06
2024-02-05T22:28:34.945Z,97893.16
2024-02-05T22:31:03.067Z,97897.41
2024-02-05T22:33:36.211Z,97897.06
2024-02-05T22:36:04.466Z,97887.97
2024-02-05T22:38:30.942Z,97880.03
2024-02-05T22:40:57.369Z,97908.94
2024-02-05T22:43:23.806Z,97885.28
2024-02-05T22:45:50.215Z,97889.47
2024-02-05T22:48:16.710Z,97899.06
2024-02-05T22:50:43.189Z,97901.78
2024-02-05T22:53:10.996Z,97887.69
2024-02-05T22:55:37.725Z,97889.47
2024-02-05T22:58:04.209Z,97886.22
2024-02-05T23:00:33.295Z,97891.59
2024-02-05T23:02:59.691Z,97901.50
2024-02-05T23:05:26.173Z,97890.78
2024-02-05T23:07:52.968Z,97903.78
2024-02-05T23:10:20.265Z,97885.63
2024-02-05T23:12:46.684Z,97896.59
2024-02-05T23:15:13.593Z,97907.47
2024-02-05T23:17:40.017Z,97898.41
2024-02-05T23:20:06.927Z,97889.78
2024-02-05T23:22:33.680Z,97894.50
2024-02-05T23:25:00.381Z,97904.38
2024-02-05T23:27:26.796Z,97913.31
2024-02-05T23:29:53.221Z,97906.19
2024-02-05T23:32:20.093Z,97895.63
2024-02-05T23:34:48.251Z,97913.19
2024-02-05T23:37:20.118Z,97906.66
2024-02-05T23:39:46.741Z,97901.69
2024-02-05T23:42:13.156Z,97901.91
2024-02-05T23:44:39.766Z,97910.38
2024-02-05T23:47:07.564Z,97916.03
2024-02-05T23:49:34.807Z,97917.75
2024-02-05T23:52:01.350Z,97917.97
2024-02-05T23:54:27.820Z,97919.25
2024-02-05T23:56:54.532Z,97903.03
2024-02-05T23:59:22.407Z,97913.94
